Airfield :
LOGIN :

Register | Disclaimer

   EN    FR    IT 

 










Legend :    VFR   Marginal VFR   IFR   Intensive IFR   Very Intensive IFR
Visi :
Ceiling :
>= 8 km
>= 3000ft
5 to 8 km
1000 to 3000 ft
1500m to 5 km
500 to 1000 ft
800 to 1500m
200 to 500 ft
< 800m
< 200 ft
Symbols :   Thunderstorms  Fog  Heavy snow  Heavy precipitations  Wind > 20 kt
SIGMETs :     Misc.  Thunderstorms  Icing  Turbulence  Mountain Waves  Volcanic Ashes






- Airport Elevation : 47 ft
- IATA code : BMA


ESSB - Stockholm-Bromma

CURRENT METAR :
  • 072050Z AUTO 26009KT 9999 FEW010/// 01/00 Q0992

EXPIRED METARs :
  • 072020Z AUTO 27010KT 9999 BKN010/// 01/00 Q0991
  • 071950Z AUTO 26010KT 9999 FEW010/// 01/00 Q0991
  • 071920Z AUTO 26009KT 9999 SCT009/// 01/01 Q0991
  • 071850Z AUTO 28012KT 9999 SCT009/// 01/00 Q0990
  • 071820Z AUTO 28013KT 9999 OVC009/// 02/01 Q0989

Expired Forecast.



MET'MAP, your aeronautical weather chart ! - Copyright ORBIFLY December 2007 - Disclaimer

ORBIFLY MET'MAP TEAM :

Programming & Development : Alexandra Zaïnal
Concept & original design : Baudouin d'Aumeries
Assistance for programming : Marc-Olivier Méhu
Technical & hardware support : Manuel Goepfert

Contact : metmap@orbifly.com




SOURCES & CREDITS :

   NOAA